Hauptseite
METAR-TAF:

METAR-TAF

Flughäfen :

Rabat, Marokko

Flughafen Rabat-Salé

Breite: 34-03N, Länge: 006-46W, Höhe: 84 m

Beobachtung

Neuester Wetterbericht von vor 24 Minuten, um 18:00 UTC
Wind 6 kt aus Nord, variierte zwischen Nordwest und Nord/Nordost
Temperatur 18°C
Luftfeuchtigkeit 68%
Luftdruck 1013 hPa
Sichtweite: 8000 m

METAR: GMME 221800Z 36006KT 310V030 8000 NSC 18/12 Q1013 NOSIG

Zeit: 19:24 (18:24 UTC)

Prognose

Neuester Wetterbericht von vor 1 Stunde und 24 Minuten, um 17:00 UTC
Gültige Prognose vom 22 um 18 UTC bis 23 um 24 UTC
Wind 9 kt aus Nord
Sichtweite: 8000 m
Übergehend zu
vom 23 um 09 UTC bis 23 um 11 UTC
Wind 10 kt aus West/Südwest, Böen bis zu 20 kt

TAF: GMME 221700Z 2218/2324 35009KT 8000 NSC BECMG 2309/2311 24010G20KT

Wetterbeobachtungen und Prognosen von mehr als 4000 Flughäfen (METAR und TAF Bericht).

Die verfügbaren Stationen werden durch gelbe und rote Markierungen auf der Karte dargestellt.

Führen Sie die Maus auf sie, um den Namen der Station zu sehen.

Darauf klicken, um die Beobachtung von Wetterbeobachtungen und Prognosen zu sehen.

Um die Karte zu ändern : klicken Sie auf den grünen Tasten mit einem schwarzen Kreuz Zum Vergrößern, auf den grünen Button mit einem Gedankenstrich zu verkleinern, oder auf die grünen Pfeile für benachbarte Karten.


METAR-TAF: